Strasburg, Illinois
Current Conditions -  °F | °C
As of 12:15 PM on Monday 22 Dec 2014 (Local Time) from K1H2 Reporting Station
Moderate Rain Moderate Rain  
Wind Chill: 38°   Ceiling: 500
Heat Index: 44°   Visibility: 2.5mi
Dew Point: 41°   Wind: 10mph
Humidity: 90%   Direction: 110°ESE
Pressure: 29.74"   Gusts: 17mph
Location:  39.35°N, 88.62°W
Report Text: K1H2 221815Z AUTO 11009G15KT 2 1/2SM RA OVC005 07/05 A2974 RMK AO2 P0001 T00660051
Loading
Personal Weather Stations






























Interactive Weather Map New forecast layout! Learn more

10-Day Weather Forecast

Advertisements
Track Severe Weather on mobile